sensor_id;sensor_type;location;lat;lon;timestamp;P1;durP1;ratioP1;P2;durP2;ratioP2
6564;SDS011;3316;44.118;27.258;2023-11-22T00:00:25;24.60;;;14.30;;
6564;SDS011;3316;44.118;27.258;2023-11-22T00:02:51;18.30;;;11.97;;
6564;SDS011;3316;44.118;27.258;2023-11-22T00:05:16;20.03;;;14.63;;
6564;SDS011;3316;44.118;27.258;2023-11-22T00:07:42;21.60;;;15.93;;
6564;SDS011;3316;44.118;27.258;2023-11-22T00:10:07;21.43;;;14.77;;
6564;SDS011;3316;44.118;27.258;2023-11-22T00:12:34;27.40;;;15.93;;
6564;SDS011;3316;44.118;27.258;2023-11-22T00:15:05;21.03;;;13.33;;
6564;SDS011;3316;44.118;27.258;2023-11-22T00:17:33;22.20;;;14.60;;
6564;SDS011;3316;44.118;27.258;2023-11-22T00:19:59;25.10;;;19.07;;
6564;SDS011;3316;44.118;27.258;2023-11-22T00:22:27;29.70;;;18.47;;
6564;SDS011;3316;44.118;27.258;2023-11-22T00:24:52;24.00;;;17.07;;
6564;SDS011;3316;44.118;27.258;2023-11-22T00:27:18;23.50;;;17.63;;
6564;SDS011;3316;44.118;27.258;2023-11-22T00:29:44;23.20;;;13.43;;
6564;SDS011;3316;44.118;27.258;2023-11-22T00:32:09;21.97;;;16.33;;
6564;SDS011;3316;44.118;27.258;2023-11-22T00:34:34;23.07;;;17.67;;
6564;SDS011;3316;44.118;27.258;2023-11-22T00:37:00;25.50;;;18.03;;
6564;SDS011;3316;44.118;27.258;2023-11-22T00:39:25;18.90;;;12.80;;
6564;SDS011;3316;44.118;27.258;2023-11-22T00:41:51;26.53;;;17.97;;
6564;SDS011;3316;44.118;27.258;2023-11-22T00:44:16;23.73;;;16.50;;
6564;SDS011;3316;44.118;27.258;2023-11-22T00:46:43;23.73;;;16.13;;
6564;SDS011;3316;44.118;27.258;2023-11-22T00:49:10;20.30;;;12.57;;
6564;SDS011;3316;44.118;27.258;2023-11-22T00:51:36;25.87;;;15.33;;
6564;SDS011;3316;44.118;27.258;2023-11-22T00:54:01;26.13;;;16.13;;
6564;SDS011;3316;44.118;27.258;2023-11-22T00:56:27;24.13;;;16.87;;
6564;SDS011;3316;44.118;27.258;2023-11-22T00:58:52;24.37;;;17.57;;
6564;SDS011;3316;44.118;27.258;2023-11-22T01:01:20;22.87;;;15.90;;
6564;SDS011;3316;44.118;27.258;2023-11-22T01:03:46;20.60;;;12.27;;
6564;SDS011;3316;44.118;27.258;2023-11-22T01:06:12;22.53;;;17.47;;
6564;SDS011;3316;44.118;27.258;2023-11-22T01:08:38;29.37;;;20.43;;
6564;SDS011;3316;44.118;27.258;2023-11-22T01:11:03;18.77;;;13.10;;
6564;SDS011;3316;44.118;27.258;2023-11-22T01:13:30;17.17;;;10.83;;
6564;SDS011;3316;44.118;27.258;2023-11-22T01:15:56;16.93;;;10.20;;
6564;SDS011;3316;44.118;27.258;2023-11-22T01:18:21;24.97;;;15.33;;
6564;SDS011;3316;44.118;27.258;2023-11-22T01:20:47;20.73;;;13.50;;
6564;SDS011;3316;44.118;27.258;2023-11-22T01:23:13;22.03;;;14.87;;
6564;SDS011;3316;44.118;27.258;2023-11-22T01:25:39;22.00;;;14.73;;
6564;SDS011;3316;44.118;27.258;2023-11-22T01:28:04;18.93;;;12.87;;
6564;SDS011;3316;44.118;27.258;2023-11-22T01:30:31;16.53;;;10.57;;
6564;SDS011;3316;44.118;27.258;2023-11-22T01:32:57;14.90;;;10.57;;
6564;SDS011;3316;44.118;27.258;2023-11-22T01:35:23;17.10;;;10.77;;
6564;SDS011;3316;44.118;27.258;2023-11-22T01:37:48;14.17;;;9.77;;
6564;SDS011;3316;44.118;27.258;2023-11-22T01:40:14;23.10;;;14.80;;
6564;SDS011;3316;44.118;27.258;2023-11-22T01:42:39;18.90;;;13.57;;
6564;SDS011;3316;44.118;27.258;2023-11-22T01:45:06;19.77;;;12.37;;
6564;SDS011;3316;44.118;27.258;2023-11-22T01:47:32;21.27;;;14.63;;
6564;SDS011;3316;44.118;27.258;2023-11-22T01:49:59;21.17;;;11.90;;
6564;SDS011;3316;44.118;27.258;2023-11-22T01:52:25;16.33;;;10.73;;
6564;SDS011;3316;44.118;27.258;2023-11-22T01:54:51;22.43;;;13.33;;
6564;SDS011;3316;44.118;27.258;2023-11-22T01:57:17;23.17;;;15.73;;
6564;SDS011;3316;44.118;27.258;2023-11-22T01:59:43;21.33;;;14.43;;
6564;SDS011;3316;44.118;27.258;2023-11-22T02:02:10;23.67;;;16.80;;
6564;SDS011;3316;44.118;27.258;2023-11-22T02:04:35;39.40;;;26.93;;
6564;SDS011;3316;44.118;27.258;2023-11-22T02:07:01;29.33;;;20.17;;
6564;SDS011;3316;44.118;27.258;2023-11-22T02:09:27;32.70;;;21.20;;
6564;SDS011;3316;44.118;27.258;2023-11-22T02:11:52;26.37;;;18.73;;
6564;SDS011;3316;44.118;27.258;2023-11-22T02:14:18;25.67;;;16.00;;
6564;SDS011;3316;44.118;27.258;2023-11-22T02:16:44;28.10;;;14.63;;
6564;SDS011;3316;44.118;27.258;2023-11-22T02:19:16;26.27;;;15.40;;
6564;SDS011;3316;44.118;27.258;2023-11-22T02:21:42;28.70;;;14.70;;
6564;SDS011;3316;44.118;27.258;2023-11-22T02:24:09;28.43;;;15.67;;
6564;SDS011;3316;44.118;27.258;2023-11-22T02:26:35;38.27;;;20.97;;
6564;SDS011;3316;44.118;27.258;2023-11-22T02:29:02;28.87;;;19.93;;
6564;SDS011;3316;44.118;27.258;2023-11-22T02:31:29;32.57;;;21.40;;
6564;SDS011;3316;44.118;27.258;2023-11-22T02:33:55;34.77;;;20.97;;
6564;SDS011;3316;44.118;27.258;2023-11-22T02:36:20;32.67;;;20.13;;
6564;SDS011;3316;44.118;27.258;2023-11-22T02:38:47;28.00;;;17.03;;
6564;SDS011;3316;44.118;27.258;2023-11-22T02:41:12;35.37;;;21.80;;
6564;SDS011;3316;44.118;27.258;2023-11-22T02:43:38;35.63;;;21.77;;
6564;SDS011;3316;44.118;27.258;2023-11-22T02:46:04;35.87;;;24.40;;
6564;SDS011;3316;44.118;27.258;2023-11-22T02:48:30;43.47;;;29.47;;
6564;SDS011;3316;44.118;27.258;2023-11-22T02:50:55;34.07;;;18.47;;
6564;SDS011;3316;44.118;27.258;2023-11-22T02:53:21;27.53;;;17.17;;
6564;SDS011;3316;44.118;27.258;2023-11-22T02:55:46;29.77;;;18.13;;
6564;SDS011;3316;44.118;27.258;2023-11-22T02:58:12;30.37;;;18.87;;
6564;SDS011;3316;44.118;27.258;2023-11-22T03:00:39;39.77;;;23.93;;
6564;SDS011;3316;44.118;27.258;2023-11-22T03:03:06;39.87;;;24.63;;
6564;SDS011;3316;44.118;27.258;2023-11-22T03:05:35;42.20;;;26.50;;
6564;SDS011;3316;44.118;27.258;2023-11-22T03:08:01;45.37;;;22.50;;
6564;SDS011;3316;44.118;27.258;2023-11-22T03:10:27;34.80;;;22.67;;
6564;SDS011;3316;44.118;27.258;2023-11-22T03:12:55;37.20;;;22.53;;
6564;SDS011;3316;44.118;27.258;2023-11-22T03:15:20;40.40;;;23.37;;
6564;SDS011;3316;44.118;27.258;2023-11-22T03:17:45;37.37;;;23.10;;
6564;SDS011;3316;44.118;27.258;2023-11-22T03:20:11;37.57;;;22.50;;
6564;SDS011;3316;44.118;27.258;2023-11-22T03:22:37;33.53;;;19.87;;
6564;SDS011;3316;44.118;27.258;2023-11-22T03:25:03;31.77;;;18.37;;
6564;SDS011;3316;44.118;27.258;2023-11-22T03:27:29;30.83;;;17.80;;
6564;SDS011;3316;44.118;27.258;2023-11-22T03:29:55;28.57;;;18.17;;
6564;SDS011;3316;44.118;27.258;2023-11-22T03:32:20;24.50;;;16.30;;
6564;SDS011;3316;44.118;27.258;2023-11-22T03:34:45;24.00;;;16.07;;
6564;SDS011;3316;44.118;27.258;2023-11-22T03:37:11;27.13;;;17.33;;
6564;SDS011;3316;44.118;27.258;2023-11-22T03:39:36;25.97;;;17.67;;
6564;SDS011;3316;44.118;27.258;2023-11-22T03:42:02;27.17;;;17.30;;
6564;SDS011;3316;44.118;27.258;2023-11-22T03:44:28;30.60;;;18.20;;
6564;SDS011;3316;44.118;27.258;2023-11-22T03:46:55;23.87;;;17.40;;
6564;SDS011;3316;44.118;27.258;2023-11-22T03:49:20;27.47;;;17.67;;
6564;SDS011;3316;44.118;27.258;2023-11-22T03:51:46;22.27;;;16.47;;
6564;SDS011;3316;44.118;27.258;2023-11-22T03:54:13;24.17;;;16.07;;
6564;SDS011;3316;44.118;27.258;2023-11-22T03:56:38;24.80;;;16.47;;
6564;SDS011;3316;44.118;27.258;2023-11-22T03:59:04;27.20;;;16.60;;
6564;SDS011;3316;44.118;27.258;2023-11-22T04:01:29;26.33;;;16.40;;
6564;SDS011;3316;44.118;27.258;2023-11-22T04:03:55;28.43;;;18.00;;
6564;SDS011;3316;44.118;27.258;2023-11-22T04:06:21;27.63;;;17.33;;
6564;SDS011;3316;44.118;27.258;2023-11-22T04:08:47;26.47;;;17.60;;
6564;SDS011;3316;44.118;27.258;2023-11-22T04:11:13;27.77;;;16.90;;
6564;SDS011;3316;44.118;27.258;2023-11-22T04:13:39;29.03;;;17.57;;
6564;SDS011;3316;44.118;27.258;2023-11-22T04:16:05;28.33;;;18.97;;
6564;SDS011;3316;44.118;27.258;2023-11-22T04:18:34;31.13;;;18.70;;
6564;SDS011;3316;44.118;27.258;2023-11-22T04:21:00;28.10;;;17.97;;
6564;SDS011;3316;44.118;27.258;2023-11-22T04:23:28;32.77;;;18.93;;
6564;SDS011;3316;44.118;27.258;2023-11-22T04:25:53;32.77;;;21.13;;
6564;SDS011;3316;44.118;27.258;2023-11-22T04:28:19;35.27;;;20.70;;
6564;SDS011;3316;44.118;27.258;2023-11-22T04:30:44;33.40;;;21.93;;
6564;SDS011;3316;44.118;27.258;2023-11-22T04:33:09;42.50;;;21.63;;
6564;SDS011;3316;44.118;27.258;2023-11-22T04:35:36;43.97;;;22.00;;
6564;SDS011;3316;44.118;27.258;2023-11-22T04:38:03;38.83;;;22.50;;
6564;SDS011;3316;44.118;27.258;2023-11-22T04:40:29;38.80;;;23.23;;
6564;SDS011;3316;44.118;27.258;2023-11-22T04:42:55;41.07;;;24.83;;
6564;SDS011;3316;44.118;27.258;2023-11-22T04:45:21;40.13;;;25.37;;
6564;SDS011;3316;44.118;27.258;2023-11-22T04:47:46;52.03;;;29.70;;
6564;SDS011;3316;44.118;27.258;2023-11-22T04:50:11;41.30;;;25.30;;
6564;SDS011;3316;44.118;27.258;2023-11-22T04:52:37;47.23;;;28.47;;
6564;SDS011;3316;44.118;27.258;2023-11-22T04:55:03;67.90;;;39.80;;
6564;SDS011;3316;44.118;27.258;2023-11-22T04:57:29;96.23;;;58.80;;
6564;SDS011;3316;44.118;27.258;2023-11-22T04:59:55;149.40;;;89.50;;
6564;SDS011;3316;44.118;27.258;2023-11-22T05:02:20;164.43;;;96.80;;
6564;SDS011;3316;44.118;27.258;2023-11-22T05:04:46;116.40;;;67.10;;
6564;SDS011;3316;44.118;27.258;2023-11-22T05:07:14;79.57;;;46.47;;
6564;SDS011;3316;44.118;27.258;2023-11-22T05:09:40;72.50;;;41.50;;
6564;SDS011;3316;44.118;27.258;2023-11-22T05:12:06;63.93;;;36.43;;
6564;SDS011;3316;44.118;27.258;2023-11-22T05:14:31;76.80;;;42.73;;
6564;SDS011;3316;44.118;27.258;2023-11-22T05:16:57;136.70;;;80.17;;
6564;SDS011;3316;44.118;27.258;2023-11-22T05:19:22;67.10;;;40.70;;
6564;SDS011;3316;44.118;27.258;2023-11-22T05:21:48;70.63;;;40.03;;
6564;SDS011;3316;44.118;27.258;2023-11-22T05:24:13;75.13;;;40.60;;
6564;SDS011;3316;44.118;27.258;2023-11-22T05:26:40;246.90;;;143.87;;
6564;SDS011;3316;44.118;27.258;2023-11-22T05:29:06;164.77;;;97.10;;
6564;SDS011;3316;44.118;27.258;2023-11-22T05:31:31;81.07;;;43.47;;
6564;SDS011;3316;44.118;27.258;2023-11-22T05:33:56;120.93;;;66.83;;
6564;SDS011;3316;44.118;27.258;2023-11-22T05:36:22;105.27;;;54.97;;
6564;SDS011;3316;44.118;27.258;2023-11-22T05:38:47;175.17;;;101.20;;
6564;SDS011;3316;44.118;27.258;2023-11-22T05:41:13;259.70;;;135.93;;
6564;SDS011;3316;44.118;27.258;2023-11-22T05:43:38;203.67;;;105.40;;
6564;SDS011;3316;44.118;27.258;2023-11-22T05:46:04;83.57;;;47.00;;
6564;SDS011;3316;44.118;27.258;2023-11-22T05:48:29;81.37;;;44.70;;
6564;SDS011;3316;44.118;27.258;2023-11-22T05:50:55;126.93;;;71.90;;
6564;SDS011;3316;44.118;27.258;2023-11-22T05:53:20;102.17;;;56.63;;
6564;SDS011;3316;44.118;27.258;2023-11-22T05:55:46;96.40;;;53.80;;
6564;SDS011;3316;44.118;27.258;2023-11-22T05:58:15;239.30;;;101.30;;
6564;SDS011;3316;44.118;27.258;2023-11-22T06:00:44;136.87;;;64.53;;
6564;SDS011;3316;44.118;27.258;2023-11-22T06:03:11;88.10;;;42.97;;
6564;SDS011;3316;44.118;27.258;2023-11-22T06:05:38;77.17;;;41.70;;
6564;SDS011;3316;44.118;27.258;2023-11-22T06:08:20;73.03;;;42.28;;
6564;SDS011;3316;44.118;27.258;2023-11-22T06:10:46;63.37;;;36.93;;
6564;SDS011;3316;44.118;27.258;2023-11-22T06:13:11;60.10;;;34.50;;
6564;SDS011;3316;44.118;27.258;2023-11-22T06:15:37;56.40;;;31.73;;
6564;SDS011;3316;44.118;27.258;2023-11-22T06:18:03;59.60;;;34.73;;
6564;SDS011;3316;44.118;27.258;2023-11-22T06:20:29;52.53;;;33.13;;
6564;SDS011;3316;44.118;27.258;2023-11-22T06:22:54;59.30;;;34.83;;
6564;SDS011;3316;44.118;27.258;2023-11-22T06:25:19;50.43;;;29.97;;
6564;SDS011;3316;44.118;27.258;2023-11-22T06:27:45;48.73;;;29.77;;
6564;SDS011;3316;44.118;27.258;2023-11-22T06:30:10;53.77;;;31.93;;
6564;SDS011;3316;44.118;27.258;2023-11-22T06:32:36;46.40;;;30.97;;
6564;SDS011;3316;44.118;27.258;2023-11-22T06:35:01;39.57;;;23.80;;
6564;SDS011;3316;44.118;27.258;2023-11-22T06:37:28;32.80;;;21.13;;
6564;SDS011;3316;44.118;27.258;2023-11-22T06:39:53;38.97;;;25.77;;
6564;SDS011;3316;44.118;27.258;2023-11-22T06:42:19;33.77;;;21.97;;
6564;SDS011;3316;44.118;27.258;2023-11-22T06:44:47;26.73;;;15.63;;
6564;SDS011;3316;44.118;27.258;2023-11-22T06:47:18;37.20;;;21.53;;
6564;SDS011;3316;44.118;27.258;2023-11-22T06:49:43;43.50;;;23.93;;
6564;SDS011;3316;44.118;27.258;2023-11-22T06:52:09;34.00;;;19.88;;
6564;SDS011;3316;44.118;27.258;2023-11-22T06:54:34;32.03;;;18.50;;
6564;SDS011;3316;44.118;27.258;2023-11-22T06:57:02;31.33;;;19.17;;
6564;SDS011;3316;44.118;27.258;2023-11-22T06:59:28;26.07;;;15.93;;
6564;SDS011;3316;44.118;27.258;2023-11-22T07:01:53;27.73;;;17.30;;
6564;SDS011;3316;44.118;27.258;2023-11-22T07:04:20;22.37;;;14.27;;
6564;SDS011;3316;44.118;27.258;2023-11-22T07:06:48;20.20;;;13.37;;
6564;SDS011;3316;44.118;27.258;2023-11-22T07:09:14;18.67;;;12.53;;
6564;SDS011;3316;44.118;27.258;2023-11-22T07:11:39;27.40;;;17.70;;
6564;SDS011;3316;44.118;27.258;2023-11-22T07:14:05;19.00;;;12.80;;
6564;SDS011;3316;44.118;27.258;2023-11-22T07:16:31;17.63;;;13.20;;
6564;SDS011;3316;44.118;27.258;2023-11-22T07:18:58;35.67;;;23.20;;
6564;SDS011;3316;44.118;27.258;2023-11-22T07:21:25;29.90;;;20.87;;
6564;SDS011;3316;44.118;27.258;2023-11-22T07:23:50;32.20;;;19.77;;
6564;SDS011;3316;44.118;27.258;2023-11-22T07:26:16;18.00;;;12.17;;
6564;SDS011;3316;44.118;27.258;2023-11-22T07:28:41;14.17;;;10.40;;
6564;SDS011;3316;44.118;27.258;2023-11-22T07:31:08;11.60;;;9.03;;
6564;SDS011;3316;44.118;27.258;2023-11-22T07:33:34;13.47;;;10.03;;
6564;SDS011;3316;44.118;27.258;2023-11-22T07:36:00;12.67;;;8.27;;
6564;SDS011;3316;44.118;27.258;2023-11-22T07:38:25;14.10;;;10.47;;
6564;SDS011;3316;44.118;27.258;2023-11-22T07:40:52;19.83;;;10.63;;
6564;SDS011;3316;44.118;27.258;2023-11-22T07:43:17;15.13;;;9.10;;
6564;SDS011;3316;44.118;27.258;2023-11-22T07:45:43;13.07;;;9.47;;
6564;SDS011;3316;44.118;27.258;2023-11-22T07:48:12;17.47;;;11.13;;
6564;SDS011;3316;44.118;27.258;2023-11-22T07:50:38;12.57;;;8.40;;
6564;SDS011;3316;44.118;27.258;2023-11-22T07:53:04;18.50;;;12.37;;
6564;SDS011;3316;44.118;27.258;2023-11-22T07:55:30;18.10;;;10.47;;
6564;SDS011;3316;44.118;27.258;2023-11-22T07:57:56;17.83;;;12.63;;
6564;SDS011;3316;44.118;27.258;2023-11-22T08:00:22;15.03;;;9.50;;
6564;SDS011;3316;44.118;27.258;2023-11-22T08:02:48;11.67;;;8.50;;
6564;SDS011;3316;44.118;27.258;2023-11-22T08:05:15;11.17;;;7.37;;
6564;SDS011;3316;44.118;27.258;2023-11-22T08:07:43;18.83;;;11.43;;
6564;SDS011;3316;44.118;27.258;2023-11-22T08:10:10;20.33;;;10.23;;
6564;SDS011;3316;44.118;27.258;2023-11-22T08:12:44;18.23;;;11.00;;
6564;SDS011;3316;44.118;27.258;2023-11-22T08:15:10;13.07;;;9.23;;
6564;SDS011;3316;44.118;27.258;2023-11-22T08:17:39;12.13;;;7.93;;
6564;SDS011;3316;44.118;27.258;2023-11-22T08:20:06;12.13;;;9.17;;
6564;SDS011;3316;44.118;27.258;2023-11-22T08:22:36;17.07;;;12.13;;
6564;SDS011;3316;44.118;27.258;2023-11-22T08:25:04;27.37;;;16.83;;
6564;SDS011;3316;44.118;27.258;2023-11-22T08:27:30;18.20;;;10.47;;
6564;SDS011;3316;44.118;27.258;2023-11-22T08:29:56;20.00;;;11.87;;
6564;SDS011;3316;44.118;27.258;2023-11-22T08:32:22;20.93;;;12.60;;
6564;SDS011;3316;44.118;27.258;2023-11-22T08:34:50;67.17;;;37.73;;
6564;SDS011;3316;44.118;27.258;2023-11-22T08:37:16;17.67;;;9.73;;
6564;SDS011;3316;44.118;27.258;2023-11-22T08:39:42;36.67;;;23.87;;
6564;SDS011;3316;44.118;27.258;2023-11-22T08:42:08;88.20;;;47.93;;
6564;SDS011;3316;44.118;27.258;2023-11-22T08:44:37;108.90;;;54.37;;
6564;SDS011;3316;44.118;27.258;2023-11-22T08:47:03;27.13;;;18.53;;
6564;SDS011;3316;44.118;27.258;2023-11-22T08:49:29;22.47;;;14.83;;
6564;SDS011;3316;44.118;27.258;2023-11-22T08:51:58;25.50;;;17.03;;
6564;SDS011;3316;44.118;27.258;2023-11-22T08:54:24;33.60;;;19.07;;
6564;SDS011;3316;44.118;27.258;2023-11-22T08:56:53;36.00;;;22.00;;
6564;SDS011;3316;44.118;27.258;2023-11-22T08:59:22;36.63;;;22.00;;
6564;SDS011;3316;44.118;27.258;2023-11-22T09:01:47;55.77;;;28.77;;
6564;SDS011;3316;44.118;27.258;2023-11-22T09:04:13;41.00;;;25.00;;
6564;SDS011;3316;44.118;27.258;2023-11-22T09:06:38;40.80;;;25.90;;
6564;SDS011;3316;44.118;27.258;2023-11-22T09:09:04;32.37;;;21.83;;
6564;SDS011;3316;44.118;27.258;2023-11-22T09:11:30;36.50;;;23.33;;
6564;SDS011;3316;44.118;27.258;2023-11-22T09:13:56;34.93;;;23.17;;
6564;SDS011;3316;44.118;27.258;2023-11-22T09:16:22;37.07;;;24.27;;
6564;SDS011;3316;44.118;27.258;2023-11-22T09:18:50;35.20;;;22.80;;
6564;SDS011;3316;44.118;27.258;2023-11-22T09:21:17;37.53;;;23.40;;
6564;SDS011;3316;44.118;27.258;2023-11-22T09:23:43;44.90;;;26.70;;
6564;SDS011;3316;44.118;27.258;2023-11-22T09:26:08;62.37;;;34.30;;
6564;SDS011;3316;44.118;27.258;2023-11-22T09:28:33;35.80;;;23.83;;
6564;SDS011;3316;44.118;27.258;2023-11-22T09:30:59;37.30;;;25.10;;
6564;SDS011;3316;44.118;27.258;2023-11-22T09:33:31;38.90;;;25.17;;
6564;SDS011;3316;44.118;27.258;2023-11-22T09:35:57;43.80;;;27.20;;
6564;SDS011;3316;44.118;27.258;2023-11-22T09:38:23;43.13;;;25.20;;
6564;SDS011;3316;44.118;27.258;2023-11-22T09:40:49;45.00;;;26.77;;
6564;SDS011;3316;44.118;27.258;2023-11-22T09:43:16;47.17;;;27.57;;
6564;SDS011;3316;44.118;27.258;2023-11-22T09:45:47;41.80;;;26.37;;
6564;SDS011;3316;44.118;27.258;2023-11-22T09:48:17;45.93;;;27.93;;
6564;SDS011;3316;44.118;27.258;2023-11-22T09:51:04;48.57;;;30.87;;
6564;SDS011;3316;44.118;27.258;2023-11-22T09:53:40;45.03;;;28.60;;
6564;SDS011;3316;44.118;27.258;2023-11-22T09:56:12;47.43;;;27.93;;
6564;SDS011;3316;44.118;27.258;2023-11-22T09:58:41;45.10;;;28.43;;
6564;SDS011;3316;44.118;27.258;2023-11-22T10:01:13;45.43;;;28.20;;
6564;SDS011;3316;44.118;27.258;2023-11-22T10:03:39;50.17;;;29.53;;
6564;SDS011;3316;44.118;27.258;2023-11-22T10:06:05;42.70;;;28.03;;
6564;SDS011;3316;44.118;27.258;2023-11-22T10:08:31;46.67;;;30.40;;
6564;SDS011;3316;44.118;27.258;2023-11-22T10:10:57;54.80;;;30.60;;
6564;SDS011;3316;44.118;27.258;2023-11-22T10:13:24;51.07;;;29.57;;
6564;SDS011;3316;44.118;27.258;2023-11-22T10:15:50;52.53;;;30.47;;
6564;SDS011;3316;44.118;27.258;2023-11-22T10:18:17;52.57;;;29.20;;
6564;SDS011;3316;44.118;27.258;2023-11-22T10:20:44;55.77;;;30.17;;
6564;SDS011;3316;44.118;27.258;2023-11-22T10:23:17;53.83;;;29.13;;
6564;SDS011;3316;44.118;27.258;2023-11-22T10:28:25;50.97;;;28.30;;
6564;SDS011;3316;44.118;27.258;2023-11-22T10:30:52;57.97;;;29.77;;
6564;SDS011;3316;44.118;27.258;2023-11-22T10:33:18;48.37;;;26.73;;
6564;SDS011;3316;44.118;27.258;2023-11-22T10:35:48;49.17;;;28.67;;
6564;SDS011;3316;44.118;27.258;2023-11-22T10:38:15;47.47;;;27.53;;
6564;SDS011;3316;44.118;27.258;2023-11-22T10:40:41;50.93;;;27.30;;
6564;SDS011;3316;44.118;27.258;2023-11-22T10:43:09;46.13;;;26.97;;
6564;SDS011;3316;44.118;27.258;2023-11-22T10:45:36;46.63;;;26.40;;
6564;SDS011;3316;44.118;27.258;2023-11-22T10:48:02;48.37;;;25.83;;
6564;SDS011;3316;44.118;27.258;2023-11-22T10:50:28;51.33;;;27.43;;
6564;SDS011;3316;44.118;27.258;2023-11-22T10:52:54;42.70;;;25.43;;
6564;SDS011;3316;44.118;27.258;2023-11-22T10:55:25;49.53;;;27.30;;
6564;SDS011;3316;44.118;27.258;2023-11-22T10:57:52;48.40;;;26.93;;
6564;SDS011;3316;44.118;27.258;2023-11-22T11:00:21;50.83;;;29.13;;
6564;SDS011;3316;44.118;27.258;2023-11-22T11:02:51;45.27;;;26.57;;
6564;SDS011;3316;44.118;27.258;2023-11-22T11:05:22;52.17;;;29.30;;
6564;SDS011;3316;44.118;27.258;2023-11-22T11:08:07;52.17;;;28.43;;
6564;SDS011;3316;44.118;27.258;2023-11-22T11:10:39;47.07;;;27.43;;
6564;SDS011;3316;44.118;27.258;2023-11-22T11:13:06;42.57;;;24.87;;
6564;SDS011;3316;44.118;27.258;2023-11-22T11:15:34;48.20;;;26.73;;
6564;SDS011;3316;44.118;27.258;2023-11-22T11:18:04;45.03;;;24.97;;
6564;SDS011;3316;44.118;27.258;2023-11-22T11:23:17;50.50;;;27.93;;
6564;SDS011;3316;44.118;27.258;2023-11-22T11:25:44;49.70;;;26.33;;
6564;SDS011;3316;44.118;27.258;2023-11-22T11:28:13;54.87;;;28.70;;
6564;SDS011;3316;44.118;27.258;2023-11-22T11:30:46;58.83;;;30.10;;
6564;SDS011;3316;44.118;27.258;2023-11-22T11:33:33;54.13;;;30.60;;
6564;SDS011;3316;44.118;27.258;2023-11-22T11:36:03;51.20;;;29.53;;
6564;SDS011;3316;44.118;27.258;2023-11-22T11:38:31;55.10;;;31.00;;
6564;SDS011;3316;44.118;27.258;2023-11-22T11:41:12;59.10;;;31.33;;
6564;SDS011;3316;44.118;27.258;2023-11-22T11:46:16;52.53;;;27.83;;
6564;SDS011;3316;44.118;27.258;2023-11-22T11:48:42;51.13;;;28.23;;
6564;SDS011;3316;44.118;27.258;2023-11-22T11:51:09;50.00;;;28.37;;
6564;SDS011;3316;44.118;27.258;2023-11-22T11:53:37;51.23;;;29.30;;
6564;SDS011;3316;44.118;27.258;2023-11-22T11:56:02;51.20;;;28.73;;
6564;SDS011;3316;44.118;27.258;2023-11-22T11:58:28;51.93;;;28.60;;
6564;SDS011;3316;44.118;27.258;2023-11-22T12:00:54;52.23;;;26.80;;
6564;SDS011;3316;44.118;27.258;2023-11-22T12:03:20;51.20;;;28.60;;
6564;SDS011;3316;44.118;27.258;2023-11-22T12:05:46;54.97;;;30.57;;
6564;SDS011;3316;44.118;27.258;2023-11-22T12:08:15;55.53;;;32.50;;
6564;SDS011;3316;44.118;27.258;2023-11-22T12:10:42;55.27;;;31.60;;
6564;SDS011;3316;44.118;27.258;2023-11-22T12:13:08;60.63;;;33.73;;
6564;SDS011;3316;44.118;27.258;2023-11-22T12:15:34;54.50;;;32.10;;
6564;SDS011;3316;44.118;27.258;2023-11-22T12:18:01;55.70;;;31.77;;
6564;SDS011;3316;44.118;27.258;2023-11-22T12:20:26;58.37;;;34.27;;
6564;SDS011;3316;44.118;27.258;2023-11-22T12:22:57;61.43;;;31.97;;
6564;SDS011;3316;44.118;27.258;2023-11-22T12:25:26;56.33;;;32.20;;
6564;SDS011;3316;44.118;27.258;2023-11-22T12:27:53;70.57;;;41.57;;
6564;SDS011;3316;44.118;27.258;2023-11-22T12:33:07;61.90;;;34.43;;
6564;SDS011;3316;44.118;27.258;2023-11-22T12:35:33;59.97;;;33.77;;
6564;SDS011;3316;44.118;27.258;2023-11-22T12:38:00;58.83;;;33.03;;
6564;SDS011;3316;44.118;27.258;2023-11-22T12:40:29;59.63;;;32.63;;
6564;SDS011;3316;44.118;27.258;2023-11-22T12:42:58;62.30;;;32.67;;
6564;SDS011;3316;44.118;27.258;2023-11-22T12:45:26;62.30;;;33.27;;
6564;SDS011;3316;44.118;27.258;2023-11-22T12:47:54;62.03;;;34.40;;
6564;SDS011;3316;44.118;27.258;2023-11-22T12:52:56;55.23;;;31.77;;
6564;SDS011;3316;44.118;27.258;2023-11-22T12:55:22;66.73;;;35.03;;
6564;SDS011;3316;44.118;27.258;2023-11-22T12:57:59;55.20;;;31.03;;
6564;SDS011;3316;44.118;27.258;2023-11-22T13:00:27;58.43;;;30.43;;
6564;SDS011;3316;44.118;27.258;2023-11-22T13:02:54;67.60;;;35.10;;
6564;SDS011;3316;44.118;27.258;2023-11-22T13:05:23;70.70;;;34.87;;
6564;SDS011;3316;44.118;27.258;2023-11-22T13:07:49;63.47;;;32.43;;
6564;SDS011;3316;44.118;27.258;2023-11-22T13:10:14;68.87;;;32.80;;
6564;SDS011;3316;44.118;27.258;2023-11-22T13:12:43;63.97;;;31.30;;
6564;SDS011;3316;44.118;27.258;2023-11-22T13:15:09;75.43;;;35.37;;
6564;SDS011;3316;44.118;27.258;2023-11-22T13:17:36;74.07;;;36.00;;
6564;SDS011;3316;44.118;27.258;2023-11-22T13:20:02;63.67;;;32.03;;
6564;SDS011;3316;44.118;27.258;2023-11-22T13:22:30;67.47;;;34.53;;
6564;SDS011;3316;44.118;27.258;2023-11-22T13:24:56;71.83;;;34.73;;
6564;SDS011;3316;44.118;27.258;2023-11-22T13:27:23;71.33;;;32.33;;
6564;SDS011;3316;44.118;27.258;2023-11-22T13:29:49;68.67;;;31.43;;
6564;SDS011;3316;44.118;27.258;2023-11-22T13:32:14;73.37;;;34.27;;
6564;SDS011;3316;44.118;27.258;2023-11-22T13:34:42;75.20;;;36.57;;
6564;SDS011;3316;44.118;27.258;2023-11-22T13:37:07;73.30;;;34.77;;
6564;SDS011;3316;44.118;27.258;2023-11-22T13:39:33;79.70;;;36.13;;
6564;SDS011;3316;44.118;27.258;2023-11-22T13:41:58;71.03;;;36.47;;
6564;SDS011;3316;44.118;27.258;2023-11-22T13:44:24;91.80;;;41.43;;
6564;SDS011;3316;44.118;27.258;2023-11-22T13:46:49;76.90;;;38.63;;
6564;SDS011;3316;44.118;27.258;2023-11-22T13:49:14;77.63;;;34.40;;
6564;SDS011;3316;44.118;27.258;2023-11-22T13:51:40;75.40;;;37.93;;
6564;SDS011;3316;44.118;27.258;2023-11-22T13:54:05;76.47;;;36.63;;
6564;SDS011;3316;44.118;27.258;2023-11-22T13:56:31;69.53;;;35.27;;
6564;SDS011;3316;44.118;27.258;2023-11-22T13:58:56;74.97;;;37.77;;
6564;SDS011;3316;44.118;27.258;2023-11-22T14:01:22;96.47;;;45.60;;
6564;SDS011;3316;44.118;27.258;2023-11-22T14:03:48;76.17;;;40.07;;
6564;SDS011;3316;44.118;27.258;2023-11-22T14:06:13;82.07;;;41.57;;
6564;SDS011;3316;44.118;27.258;2023-11-22T14:08:41;88.77;;;42.93;;
6564;SDS011;3316;44.118;27.258;2023-11-22T14:11:07;80.10;;;39.40;;
6564;SDS011;3316;44.118;27.258;2023-11-22T14:13:32;91.10;;;42.20;;
6564;SDS011;3316;44.118;27.258;2023-11-22T14:15:58;106.97;;;50.10;;
6564;SDS011;3316;44.118;27.258;2023-11-22T14:18:23;100.63;;;47.30;;
6564;SDS011;3316;44.118;27.258;2023-11-22T14:20:50;103.20;;;49.07;;
6564;SDS011;3316;44.118;27.258;2023-11-22T14:23:16;85.87;;;39.53;;
6564;SDS011;3316;44.118;27.258;2023-11-22T14:25:46;78.20;;;38.10;;
6564;SDS011;3316;44.118;27.258;2023-11-22T14:28:12;79.77;;;37.50;;
6564;SDS011;3316;44.118;27.258;2023-11-22T14:30:38;76.77;;;37.00;;
6564;SDS011;3316;44.118;27.258;2023-11-22T14:33:05;75.30;;;35.67;;
6564;SDS011;3316;44.118;27.258;2023-11-22T14:35:34;72.70;;;33.73;;
6564;SDS011;3316;44.118;27.258;2023-11-22T14:38:00;77.17;;;36.33;;
6564;SDS011;3316;44.118;27.258;2023-11-22T14:40:28;77.13;;;36.27;;
6564;SDS011;3316;44.118;27.258;2023-11-22T14:42:55;75.27;;;35.17;;